CSAV Rio Maipo — A8GH5 — position and weather

sailwx.info

Track history (hours):
 
Tides and Currents Weather Stations Pressure Air Temp Water Temp Dewpoint Dewpoint Depression Visibility Wind Speed Wind Dir Waves Ship Positions

CSAV Rio Maipo

Last reported at 2014-Oct-21 17:33 UTC. Time now 2014-Oct-21 18:28 UTC.
Position N 31°22' E 121°42'.

Length 210.9 m; beam 32.3 m; draft 12 m.

Type: Cargo ship. MMSI: 636091292.

Date/timePositionNaut miles runAvg speedWind from/ knotsBaromVisibWave heightAir tempDewpointWater temp
2014-Oct-21 17:33N 31°22' E 121°42'0 0.0
2014-Oct-21 16:33N 31°22' E 121°42'0 0.0
2014-Oct-21 15:33N 31°22' E 121°42'0 0.0
2014-Oct-21 14:33N 31°22' E 121°42'0 0.0
2014-Oct-21 13:33N 31°22' E 121°42'0 0.0
2014-Oct-21 12:32N 31°22' E 121°42'0 0.0
2014-Oct-21 11:32N 31°22' E 121°42'0 0.0
2014-Oct-21 10:32N 31°22' E 121°42'0 0.0
2014-Oct-21 09:32N 31°22' E 121°42'0 0.0
2014-Oct-21 08:32N 31°22' E 121°42'0 0.0
2014-Oct-21 07:33N 31°22' E 121°42'0 0.0
2014-Oct-21 06:33N 31°22' E 121°42'0 0.0
2014-Oct-21 05:33N 31°22' E 121°42'0 0.0
2014-Oct-21 04:33N 31°22' E 121°42'0 0.0
2014-Oct-21 03:33N 31°22' E 121°42'0 0.0
2014-Oct-21 02:33N 31°22' E 121°42'0 0.0
2014-Oct-21 01:31N 31°22' E 121°42'0 0.0
2014-Oct-21 00:33N 31°22' E 121°42'0 0.0
2014-Oct-20 23:33N 31°22' E 121°42'0 0.0
2014-Oct-20 22:33N 31°22' E 121°42'0 0.0
2014-Oct-20 21:33N 31°22' E 121°42'0 0.0
2014-Oct-20 20:29N 31°22' E 121°42'0 0.0
2014-Oct-20 19:33N 31°22' E 121°42'0 0.0
2014-Oct-20 18:33N 31°22' E 121°42'0 0.0
2014-Oct-20 17:33N 31°22' E 121°42'0 0.0
2014-Oct-20 16:33N 31°22' E 121°42'0 0.0
2014-Oct-20 15:32N 31°22' E 121°42'0 0.0
2014-Oct-20 14:33N 31°22' E 121°42'0 0.0
2014-Oct-20 13:30N 31°22' E 121°42'0 0.0
2014-Oct-20 12:32N 31°22' E 121°42'0 0.0
2014-Oct-20 11:27N 31°22' E 121°42'0 0.0
2014-Oct-20 10:32N 31°22' E 121°42'0 0.0
2014-Oct-20 09:28N 31°22' E 121°42'0 0.0
2014-Oct-20 08:33N 31°22' E 121°42'0 0.0
2014-Oct-20 07:33N 31°22' E 121°42'0 0.0
2014-Oct-20 06:33N 31°22' E 121°42'0 0.0
2014-Oct-20 05:33N 31°22' E 121°42'0 0.0
2014-Oct-20 04:32N 31°22' E 121°42'0 0.0
2014-Oct-20 03:32N 31°22' E 121°42'6 6.0
2014-Oct-20 02:33N 31°18' E 121°46'1715.1
2014-Oct-20 01:25N 31°14' E 122°06'1214.0
2014-Oct-20 00:33N 31°07' E 122°17'1111.4
2014-Oct-19 23:33N 31°07' E 122°31'8 0.3
2014-Oct-19 01:28N 31°08' E 122°39'1311.7
2014-Oct-19 00:22N 30°57' E 122°47'1113.4
2014-Oct-18 23:33N 30°48' E 122°55'1413.8
2014-Oct-18 22:33N 30°35' E 122°60'1313.4
2014-Oct-18 21:33N 30°22' E 123°00'1312.8
2014-Oct-18 20:33N 30°09' E 122°60'1411.9
2014-Oct-18 19:21N 29°58' E 122°50'1113.4
2014-Oct-18 18:33N 29°49' E 122°44'1212.0
2014-Oct-18 17:33N 29°39' E 122°35'1312.9
2014-Oct-18 16:34N 29°43' E 122°21'1312.5
2014-Oct-18 15:33N 29°52' E 122°11'1414.0
2014-Oct-18 14:33N 29°58' E 121°56'5 5.3
2014-Oct-18 13:33N 29°59' E 121°50'0 0.0
2014-Oct-18 11:21N 29°59' E 121°50'0 0.0
2014-Oct-18 10:23N 29°59' E 121°50'0 0.0
2014-Oct-18 09:29N 29°59' E 121°50'0 0.0
2014-Oct-18 08:33N 29°59' E 121°50'0 0.0
2014-Oct-18 07:23N 29°59' E 121°50'0 0.0
2014-Oct-18 06:27N 29°59' E 121°50'0 0.0
2014-Oct-18 05:17N 29°59' E 121°50'0 0.0
2014-Oct-18 03:21N 29°59' E 121°50'0 0.0
2014-Oct-18 02:29N 29°59' E 121°50'0 0.0
2014-Oct-18 01:23N 29°59' E 121°50'0 0.0
2014-Oct-18 00:32N 29°59' E 121°50'0 0.0
2014-Oct-17 23:29N 29°59' E 121°50'2 1.7
2014-Oct-17 22:34N 29°58' E 121°50'1211.5
2014-Oct-17 21:33N 29°56' E 122°03'1111.4
2014-Oct-17 20:33N 29°49' E 122°14'9 8.9
2014-Oct-17 19:33N 29°43' E 122°22'7 7.3
2014-Oct-17 18:33N 29°37' E 122°27'4 4.1
2014-Oct-17 17:30N 29°33' E 122°29'7 7.5
2014-Oct-17 16:32N 29°26' E 122°30'1110.9
2014-Oct-17 15:33N 29°15' E 122°29'33211.1
2014-Oct-16 09:32N 24°31' E 119°17'5611.0
2014-Oct-16 04:23N 23°52' E 118°31'1011.2
2014-Oct-16 03:29N 23°45' E 118°24'1011.1
2014-Oct-16 02:33N 23°37' E 118°16'  
Track history (hours):
 
Tides and Currents Weather Stations Pressure Air Temp Water Temp Dewpoint Dewpoint Depression Visibility Wind Speed Wind Dir Waves Ship Positions

CSAV Rio Maipo

Last reported at 2014-Oct-21 17:33 UTC. Time now 2014-Oct-21 18:28 UTC.
Position N 31°22' E 121°42'.

Length 210.9 m; beam 32.3 m; draft 12 m.

Type: Cargo ship. MMSI: 636091292.

Date/timePositionNaut miles runAvg speedWind from/ knotsBaromVisibWave heightAir tempDewpointWater temp
2014-Oct-21 17:33N 31°22' E 121°42'0 0.0
2014-Oct-21 16:33N 31°22' E 121°42'0 0.0
2014-Oct-21 15:33N 31°22' E 121°42'0 0.0
2014-Oct-21 14:33N 31°22' E 121°42'0 0.0
2014-Oct-21 13:33N 31°22' E 121°42'0 0.0
2014-Oct-21 12:32N 31°22' E 121°42'0 0.0
2014-Oct-21 11:32N 31°22' E 121°42'0 0.0
2014-Oct-21 10:32N 31°22' E 121°42'0 0.0
2014-Oct-21 09:32N 31°22' E 121°42'0 0.0
2014-Oct-21 08:32N 31°22' E 121°42'0 0.0
2014-Oct-21 07:33N 31°22' E 121°42'0 0.0
2014-Oct-21 06:33N 31°22' E 121°42'0 0.0
2014-Oct-21 05:33N 31°22' E 121°42'0 0.0
2014-Oct-21 04:33N 31°22' E 121°42'0 0.0
2014-Oct-21 03:33N 31°22' E 121°42'0 0.0
2014-Oct-21 02:33N 31°22' E 121°42'0 0.0
2014-Oct-21 01:31N 31°22' E 121°42'0 0.0
2014-Oct-21 00:33N 31°22' E 121°42'0 0.0
2014-Oct-20 23:33N 31°22' E 121°42'0 0.0
2014-Oct-20 22:33N 31°22' E 121°42'0 0.0
2014-Oct-20 21:33N 31°22' E 121°42'0 0.0
2014-Oct-20 20:29N 31°22' E 121°42'0 0.0
2014-Oct-20 19:33N 31°22' E 121°42'0 0.0
2014-Oct-20 18:33N 31°22' E 121°42'0 0.0
2014-Oct-20 17:33N 31°22' E 121°42'0 0.0
2014-Oct-20 16:33N 31°22' E 121°42'0 0.0
2014-Oct-20 15:32N 31°22' E 121°42'0 0.0
2014-Oct-20 14:33N 31°22' E 121°42'0 0.0
2014-Oct-20 13:30N 31°22' E 121°42'0 0.0
2014-Oct-20 12:32N 31°22' E 121°42'0 0.0
2014-Oct-20 11:27N 31°22' E 121°42'0 0.0
2014-Oct-20 10:32N 31°22' E 121°42'0 0.0
2014-Oct-20 09:28N 31°22' E 121°42'0 0.0
2014-Oct-20 08:33N 31°22' E 121°42'0 0.0
2014-Oct-20 07:33N 31°22' E 121°42'0 0.0
2014-Oct-20 06:33N 31°22' E 121°42'0 0.0
2014-Oct-20 05:33N 31°22' E 121°42'0 0.0
2014-Oct-20 04:32N 31°22' E 121°42'0 0.0
2014-Oct-20 03:32N 31°22' E 121°42'6 6.0
2014-Oct-20 02:33N 31°18' E 121°46'1715.1
2014-Oct-20 01:25N 31°14' E 122°06'1214.0
2014-Oct-20 00:33N 31°07' E 122°17'1111.4
2014-Oct-19 23:33N 31°07' E 122°31'8 0.3
2014-Oct-19 01:28N 31°08' E 122°39'1311.7
2014-Oct-19 00:22N 30°57' E 122°47'1113.4
2014-Oct-18 23:33N 30°48' E 122°55'1413.8
2014-Oct-18 22:33N 30°35' E 122°60'1313.4
2014-Oct-18 21:33N 30°22' E 123°00'1312.8
2014-Oct-18 20:33N 30°09' E 122°60'1411.9
2014-Oct-18 19:21N 29°58' E 122°50'1113.4
2014-Oct-18 18:33N 29°49' E 122°44'1212.0
2014-Oct-18 17:33N 29°39' E 122°35'1312.9
2014-Oct-18 16:34N 29°43' E 122°21'1312.5
2014-Oct-18 15:33N 29°52' E 122°11'1414.0
2014-Oct-18 14:33N 29°58' E 121°56'5 5.3
2014-Oct-18 13:33N 29°59' E 121°50'0 0.0
2014-Oct-18 11:21N 29°59' E 121°50'0 0.0
2014-Oct-18 10:23N 29°59' E 121°50'0 0.0
2014-Oct-18 09:29N 29°59' E 121°50'0 0.0
2014-Oct-18 08:33N 29°59' E 121°50'0 0.0
2014-Oct-18 07:23N 29°59' E 121°50'0 0.0
2014-Oct-18 06:27N 29°59' E 121°50'0 0.0
2014-Oct-18 05:17N 29°59' E 121°50'0 0.0
2014-Oct-18 03:21N 29°59' E 121°50'0 0.0
2014-Oct-18 02:29N 29°59' E 121°50'0 0.0
2014-Oct-18 01:23N 29°59' E 121°50'0 0.0
2014-Oct-18 00:32N 29°59' E 121°50'0 0.0
2014-Oct-17 23:29N 29°59' E 121°50'2 1.7
2014-Oct-17 22:34N 29°58' E 121°50'1211.5
2014-Oct-17 21:33N 29°56' E 122°03'1111.4
2014-Oct-17 20:33N 29°49' E 122°14'9 8.9
2014-Oct-17 19:33N 29°43' E 122°22'7 7.3
2014-Oct-17 18:33N 29°37' E 122°27'4 4.1
2014-Oct-17 17:30N 29°33' E 122°29'7 7.5
2014-Oct-17 16:32N 29°26' E 122°30'1110.9
2014-Oct-17 15:33N 29°15' E 122°29'33211.1
2014-Oct-16 09:32N 24°31' E 119°17'5611.0
2014-Oct-16 04:23N 23°52' E 118°31'1011.2
2014-Oct-16 03:29N 23°45' E 118°24'1011.1
2014-Oct-16 02:33N 23°37' E 118°16'  

Dump ship's entire track history